sensor_id;sensor_type;location;lat;lon;timestamp;pressure;altitude;pressure_sealevel;temperature;humidity
11808;BME280;5961;42.640;23.380;2022-11-18T00:01:06;93027.53;;;11.98;100.00
11808;BME280;5961;42.640;23.380;2022-11-18T00:03:33;93042.81;;;12.04;100.00
11808;BME280;5961;42.640;23.380;2022-11-18T00:06:02;93032.84;;;11.98;100.00
11808;BME280;5961;42.640;23.380;2022-11-18T00:08:29;93039.00;;;12.02;100.00
11808;BME280;5961;42.640;23.380;2022-11-18T00:10:56;92989.22;;;11.73;100.00
11808;BME280;5961;42.640;23.380;2022-11-18T00:13:23;93034.78;;;12.01;100.00
11808;BME280;5961;42.640;23.380;2022-11-18T00:16:09;93030.53;;;11.93;100.00
11808;BME280;5961;42.640;23.380;2022-11-18T00:18:36;93027.19;;;11.99;100.00
11808;BME280;5961;42.640;23.380;2022-11-18T00:21:06;93032.91;;;12.01;100.00
11808;BME280;5961;42.640;23.380;2022-11-18T00:23:33;93035.19;;;12.03;100.00
11808;BME280;5961;42.640;23.380;2022-11-18T00:26:01;93035.59;;;12.05;100.00
11808;BME280;5961;42.640;23.380;2022-11-18T00:28:29;93025.66;;;11.98;100.00
11808;BME280;5961;42.640;23.380;2022-11-18T00:31:00;93041.31;;;12.07;100.00
11808;BME280;5961;42.640;23.380;2022-11-18T00:33:27;93033.28;;;12.03;100.00
11808;BME280;5961;42.640;23.380;2022-11-18T00:35:54;93031.34;;;12.00;100.00
11808;BME280;5961;42.640;23.380;2022-11-18T00:38:23;93026.41;;;11.99;100.00
11808;BME280;5961;42.640;23.380;2022-11-18T00:40:57;93018.00;;;11.97;100.00
11808;BME280;5961;42.640;23.380;2022-11-18T00:43:24;93019.97;;;12.03;100.00
11808;BME280;5961;42.640;23.380;2022-11-18T00:45:50;93027.97;;;12.03;100.00
11808;BME280;5961;42.640;23.380;2022-11-18T00:48:16;93023.63;;;11.88;100.00
11808;BME280;5961;42.640;23.380;2022-11-18T00:50:46;93022.94;;;11.95;100.00
11808;BME280;5961;42.640;23.380;2022-11-18T00:53:13;93028.22;;;11.91;100.00
11808;BME280;5961;42.640;23.380;2022-11-18T00:58:12;93020.19;;;11.84;100.00
11808;BME280;5961;42.640;23.380;2022-11-18T01:00:39;93027.81;;;11.89;100.00
11808;BME280;5961;42.640;23.380;2022-11-18T01:03:07;93022.09;;;11.87;100.00
11808;BME280;5961;42.640;23.380;2022-11-18T01:05:33;93022.09;;;11.87;100.00
11808;BME280;5961;42.640;23.380;2022-11-18T01:08:00;92959.63;;;11.44;100.00
11808;BME280;5961;42.640;23.380;2022-11-18T01:10:27;93018.97;;;11.82;100.00
11808;BME280;5961;42.640;23.380;2022-11-18T01:12:54;93023.56;;;11.85;100.00
11808;BME280;5961;42.640;23.380;2022-11-18T01:15:40;93020.34;;;11.69;100.00
11808;BME280;5961;42.640;23.380;2022-11-18T01:18:07;93021.16;;;11.73;100.00
11808;BME280;5961;42.640;23.380;2022-11-18T01:20:34;93019.66;;;11.72;100.00
11808;BME280;5961;42.640;23.380;2022-11-18T01:23:02;93018.09;;;11.71;100.00
11808;BME280;5961;42.640;23.380;2022-11-18T01:25:29;92988.94;;;11.51;100.00
11808;BME280;5961;42.640;23.380;2022-11-18T01:27:56;93009.69;;;11.69;100.00
11808;BME280;5961;42.640;23.380;2022-11-18T01:30:22;93019.66;;;11.72;100.00
11808;BME280;5961;42.640;23.380;2022-11-18T01:32:50;93027.97;;;11.70;100.00
11808;BME280;5961;42.640;23.380;2022-11-18T01:35:17;93020.34;;;11.69;100.00
11808;BME280;5961;42.640;23.380;2022-11-18T01:37:44;93021.06;;;11.66;100.00
11808;BME280;5961;42.640;23.380;2022-11-18T01:40:11;93030.16;;;11.65;100.00
11808;BME280;5961;42.640;23.380;2022-11-18T01:42:38;93014.19;;;11.65;100.00
11808;BME280;5961;42.640;23.380;2022-11-18T01:45:18;93024.03;;;11.61;100.00
11808;BME280;5961;42.640;23.380;2022-11-18T01:47:48;93019.53;;;11.65;100.00
11808;BME280;5961;42.640;23.380;2022-11-18T01:50:19;93018.38;;;11.62;100.00
11808;BME280;5961;42.640;23.380;2022-11-18T01:52:48;93006.47;;;11.52;100.00
11808;BME280;5961;42.640;23.380;2022-11-18T01:55:18;93010.72;;;11.57;100.00
11808;BME280;5961;42.640;23.380;2022-11-18T01:57:48;93011.28;;;11.43;100.00
11808;BME280;5961;42.640;23.380;2022-11-18T02:00:17;93030.00;;;11.50;100.00
11808;BME280;5961;42.640;23.380;2022-11-18T02:02:44;93013.28;;;11.50;100.00
11808;BME280;5961;42.640;23.380;2022-11-18T02:05:12;93016.28;;;11.48;100.00
11808;BME280;5961;42.640;23.380;2022-11-18T02:07:42;92988.19;;;11.21;100.00
11808;BME280;5961;42.640;23.380;2022-11-18T02:10:17;93022.31;;;11.42;100.00
11808;BME280;5961;42.640;23.380;2022-11-18T02:12:45;93029.56;;;11.45;100.00
11808;BME280;5961;42.640;23.380;2022-11-18T02:15:12;93031.44;;;11.44;100.00
11808;BME280;5961;42.640;23.380;2022-11-18T02:17:46;93024.19;;;11.41;100.00
11808;BME280;5961;42.640;23.380;2022-11-18T02:20:27;93000.47;;;11.29;100.00
11808;BME280;5961;42.640;23.380;2022-11-18T02:23:20;93020.72;;;11.37;100.00
11808;BME280;5961;42.640;23.380;2022-11-18T02:26:05;93020.94;;;11.25;100.00
11808;BME280;5961;42.640;23.380;2022-11-18T02:28:54;93028.47;;;11.20;100.00
11808;BME280;5961;42.640;23.380;2022-11-18T02:31:25;93013.53;;;11.12;100.00
11808;BME280;5961;42.640;23.380;2022-11-18T02:33:55;93011.56;;;11.05;100.00
11808;BME280;5961;42.640;23.380;2022-11-18T02:36:27;93024.13;;;11.08;100.00
11808;BME280;5961;42.640;23.380;2022-11-18T02:39:00;93023.97;;;10.97;100.00
11808;BME280;5961;42.640;23.380;2022-11-18T02:41:30;93017.16;;;11.00;100.00
11808;BME280;5961;42.640;23.380;2022-11-18T02:44:03;93014.50;;;11.00;100.00
11808;BME280;5961;42.640;23.380;2022-11-18T02:46:32;92972.59;;;10.64;100.00
11808;BME280;5961;42.640;23.380;2022-11-18T02:49:02;93012.56;;;10.97;100.00
11808;BME280;5961;42.640;23.380;2022-11-18T02:51:30;93004.91;;;10.92;100.00
11808;BME280;5961;42.640;23.380;2022-11-18T02:54:02;93008.78;;;10.98;100.00
11808;BME280;5961;42.640;23.380;2022-11-18T02:56:31;93017.59;;;11.02;100.00
11808;BME280;5961;42.640;23.380;2022-11-18T02:58:58;93013.47;;;10.82;100.00
11808;BME280;5961;42.640;23.380;2022-11-18T03:01:29;93014.72;;;10.88;100.00
11808;BME280;5961;42.640;23.380;2022-11-18T03:03:56;93013.59;;;10.89;100.00
11808;BME280;5961;42.640;23.380;2022-11-18T03:06:27;93014.63;;;10.81;100.00
11808;BME280;5961;42.640;23.380;2022-11-18T03:09:02;93026.13;;;10.88;100.00
11808;BME280;5961;42.640;23.380;2022-11-18T03:11:33;93029.44;;;10.82;100.00
11808;BME280;5961;42.640;23.380;2022-11-18T03:14:08;93024.16;;;10.85;100.00
11808;BME280;5961;42.640;23.380;2022-11-18T03:16:48;93015.03;;;10.83;100.00
11808;BME280;5961;42.640;23.380;2022-11-18T03:19:19;93032.50;;;10.84;100.00
11808;BME280;5961;42.640;23.380;2022-11-18T03:21:51;93016.97;;;10.86;100.00
11808;BME280;5961;42.640;23.380;2022-11-18T03:24:26;93006.28;;;10.82;100.00
11808;BME280;5961;42.640;23.380;2022-11-18T03:27:03;93013.19;;;10.87;100.00
11808;BME280;5961;42.640;23.380;2022-11-18T03:29:35;93003.38;;;10.91;100.00
11808;BME280;5961;42.640;23.380;2022-11-18T03:32:09;93001.03;;;10.86;100.00
11808;BME280;5961;42.640;23.380;2022-11-18T03:34:40;93011.34;;;10.91;100.00
11808;BME280;5961;42.640;23.380;2022-11-18T03:37:10;93006.66;;;10.81;100.00
11808;BME280;5961;42.640;23.380;2022-11-18T03:39:41;93011.25;;;10.84;100.00
11808;BME280;5961;42.640;23.380;2022-11-18T03:42:13;93009.38;;;10.84;100.00
11808;BME280;5961;42.640;23.380;2022-11-18T03:44:45;92997.75;;;10.70;100.00
11808;BME280;5961;42.640;23.380;2022-11-18T03:47:17;93007.00;;;10.79;100.00
11808;BME280;5961;42.640;23.380;2022-11-18T03:49:50;93014.50;;;10.74;100.00
11808;BME280;5961;42.640;23.380;2022-11-18T03:52:22;93006.09;;;10.68;100.00
11808;BME280;5961;42.640;23.380;2022-11-18T03:54:54;92994.63;;;10.64;100.00
11808;BME280;5961;42.640;23.380;2022-11-18T03:57:24;93001.53;;;10.69;100.00
11808;BME280;5961;42.640;23.380;2022-11-18T03:59:58;92995.78;;;10.67;100.00
11808;BME280;5961;42.640;23.380;2022-11-18T04:02:29;93000.00;;;10.68;100.00
11808;BME280;5961;42.640;23.380;2022-11-18T04:04:59;93004.38;;;10.57;100.00
11808;BME280;5961;42.640;23.380;2022-11-18T04:07:30;92988.19;;;10.39;100.00
11808;BME280;5961;42.640;23.380;2022-11-18T04:10:02;92992.00;;;10.41;100.00
11808;BME280;5961;42.640;23.380;2022-11-18T04:12:32;92987.41;;;10.38;100.00
11808;BME280;5961;42.640;23.380;2022-11-18T04:15:00;93010.69;;;10.03;100.00
11808;BME280;5961;42.640;23.380;2022-11-18T04:17:27;92996.72;;;10.06;100.00
11808;BME280;5961;42.640;23.380;2022-11-18T04:19:55;93008.31;;;9.98;100.00
11808;BME280;5961;42.640;23.380;2022-11-18T04:22:22;93001.75;;;9.92;100.00
11808;BME280;5961;42.640;23.380;2022-11-18T04:24:49;92994.50;;;9.89;100.00
11808;BME280;5961;42.640;23.380;2022-11-18T04:27:16;93000.94;;;9.88;100.00
11808;BME280;5961;42.640;23.380;2022-11-18T04:29:42;92998.38;;;9.72;100.00
11808;BME280;5961;42.640;23.380;2022-11-18T04:32:09;93000.97;;;9.69;100.00
11808;BME280;5961;42.640;23.380;2022-11-18T04:34:36;93003.47;;;9.62;100.00
11808;BME280;5961;42.640;23.380;2022-11-18T04:37:04;93005.84;;;9.67;100.00
11808;BME280;5961;42.640;23.380;2022-11-18T04:39:30;92999.84;;;9.70;100.00
11808;BME280;5961;42.640;23.380;2022-11-18T04:41:57;92993.28;;;9.64;100.00
11808;BME280;5961;42.640;23.380;2022-11-18T04:44:26;92978.94;;;9.46;100.00
11808;BME280;5961;42.640;23.380;2022-11-18T04:46:53;93037.84;;;9.55;100.00
11808;BME280;5961;42.640;23.380;2022-11-18T04:49:21;93011.34;;;9.58;100.00
11808;BME280;5961;42.640;23.380;2022-11-18T04:51:48;92998.09;;;9.58;100.00
11808;BME280;5961;42.640;23.380;2022-11-18T04:54:17;92997.28;;;9.54;100.00
11808;BME280;5961;42.640;23.380;2022-11-18T04:56:45;93032.00;;;9.49;100.00
11808;BME280;5961;42.640;23.380;2022-11-18T04:59:13;93006.88;;;9.43;100.00
11808;BME280;5961;42.640;23.380;2022-11-18T05:01:40;93020.50;;;9.42;100.00
11808;BME280;5961;42.640;23.380;2022-11-18T05:04:11;93023.56;;;9.44;100.00
11808;BME280;5961;42.640;23.380;2022-11-18T05:06:38;93015.91;;;9.38;100.00
11808;BME280;5961;42.640;23.380;2022-11-18T05:09:05;92965.09;;;8.98;100.00
11808;BME280;5961;42.640;23.380;2022-11-18T05:11:33;93014.25;;;9.30;100.00
11808;BME280;5961;42.640;23.380;2022-11-18T05:14:17;93005.16;;;9.31;100.00
11808;BME280;5961;42.640;23.380;2022-11-18T05:16:44;93006.91;;;9.24;100.00
11808;BME280;5961;42.640;23.380;2022-11-18T05:19:11;93013.81;;;9.28;100.00
11808;BME280;5961;42.640;23.380;2022-11-18T05:21:38;93034.69;;;9.30;100.00
11808;BME280;5961;42.640;23.380;2022-11-18T05:24:05;93025.25;;;9.32;100.00
11808;BME280;5961;42.640;23.380;2022-11-18T05:26:33;93024.16;;;9.33;100.00
11808;BME280;5961;42.640;23.380;2022-11-18T05:29:00;92987.13;;;9.02;100.00
11808;BME280;5961;42.640;23.380;2022-11-18T05:31:26;93033.91;;;9.29;100.00
11808;BME280;5961;42.640;23.380;2022-11-18T05:33:53;93021.06;;;9.31;100.00
11808;BME280;5961;42.640;23.380;2022-11-18T05:36:21;93023.16;;;9.42;100.00
11808;BME280;5961;42.640;23.380;2022-11-18T05:38:48;93013.09;;;9.31;100.00
11808;BME280;5961;42.640;23.380;2022-11-18T05:41:15;93006.69;;;9.32;100.00
11808;BME280;5961;42.640;23.380;2022-11-18T05:43:57;93028.19;;;9.47;100.00
11808;BME280;5961;42.640;23.380;2022-11-18T05:46:24;93016.47;;;9.48;100.00
11808;BME280;5961;42.640;23.380;2022-11-18T05:48:51;93015.16;;;9.57;100.00
11808;BME280;5961;42.640;23.380;2022-11-18T05:51:17;93011.03;;;9.60;100.00
11808;BME280;5961;42.640;23.380;2022-11-18T05:53:45;93029.88;;;9.55;100.00
11808;BME280;5961;42.640;23.380;2022-11-18T05:56:18;93020.44;;;9.57;100.00
11808;BME280;5961;42.640;23.380;2022-11-18T05:58:45;93007.03;;;9.50;100.00
11808;BME280;5961;42.640;23.380;2022-11-18T06:01:16;93004.06;;;9.52;100.00
11808;BME280;5961;42.640;23.380;2022-11-18T06:03:45;93016.88;;;9.50;100.00
11808;BME280;5961;42.640;23.380;2022-11-18T06:06:13;93017.16;;;9.45;100.00
11808;BME280;5961;42.640;23.380;2022-11-18T06:08:44;93010.16;;;9.56;100.00
11808;BME280;5961;42.640;23.380;2022-11-18T06:11:13;93012.47;;;9.38;100.00
11808;BME280;5961;42.640;23.380;2022-11-18T06:13:44;93020.53;;;9.61;100.00
11808;BME280;5961;42.640;23.380;2022-11-18T06:16:17;93020.56;;;9.64;100.00
11808;BME280;5961;42.640;23.380;2022-11-18T06:18:47;93010.31;;;9.63;100.00
11808;BME280;5961;42.640;23.380;2022-11-18T06:21:13;92951.56;;;9.42;100.00
11808;BME280;5961;42.640;23.380;2022-11-18T06:23:41;93012.81;;;9.75;100.00
11808;BME280;5961;42.640;23.380;2022-11-18T06:26:08;93016.94;;;9.72;100.00
11808;BME280;5961;42.640;23.380;2022-11-18T06:28:37;92997.75;;;9.79;100.00
11808;BME280;5961;42.640;23.380;2022-11-18T06:31:05;93017.34;;;9.74;100.00
11808;BME280;5961;42.640;23.380;2022-11-18T06:33:33;93017.72;;;9.73;100.00
11808;BME280;5961;42.640;23.380;2022-11-18T06:35:59;93001.28;;;9.67;100.00
11808;BME280;5961;42.640;23.380;2022-11-18T06:38:26;92998.63;;;9.67;100.00
11808;BME280;5961;42.640;23.380;2022-11-18T06:40:57;93022.59;;;9.71;100.00
11808;BME280;5961;42.640;23.380;2022-11-18T06:43:24;93011.56;;;9.69;100.00
11808;BME280;5961;42.640;23.380;2022-11-18T06:46:08;92981.97;;;9.67;100.00
11808;BME280;5961;42.640;23.380;2022-11-18T06:48:54;92994.88;;;9.68;100.00
11808;BME280;5961;42.640;23.380;2022-11-18T06:51:21;93016.19;;;9.72;100.00
11808;BME280;5961;42.640;23.380;2022-11-18T06:53:48;93007.31;;;9.64;100.00
11808;BME280;5961;42.640;23.380;2022-11-18T06:56:16;93018.34;;;9.66;100.00
11808;BME280;5961;42.640;23.380;2022-11-18T06:58:43;93005.72;;;9.79;100.00
11808;BME280;5961;42.640;23.380;2022-11-18T07:01:11;93028.03;;;9.78;100.00
11808;BME280;5961;42.640;23.380;2022-11-18T07:03:38;93025.78;;;9.80;100.00
11808;BME280;5961;42.640;23.380;2022-11-18T07:06:06;93013.66;;;9.79;100.00
11808;BME280;5961;42.640;23.380;2022-11-18T07:08:34;92968.31;;;9.46;100.00
11808;BME280;5961;42.640;23.380;2022-11-18T07:11:01;93015.72;;;9.89;100.00
11808;BME280;5961;42.640;23.380;2022-11-18T07:13:29;93009.00;;;9.95;100.00
11808;BME280;5961;42.640;23.380;2022-11-18T07:16:01;93030.72;;;10.01;100.00
11808;BME280;5961;42.640;23.380;2022-11-18T07:18:28;93011.09;;;10.05;100.00
11808;BME280;5961;42.640;23.380;2022-11-18T07:20:55;93014.09;;;10.04;100.00
11808;BME280;5961;42.640;23.380;2022-11-18T07:23:23;93006.44;;;9.99;100.00
11808;BME280;5961;42.640;23.380;2022-11-18T07:25:53;92971.31;;;9.86;100.00
11808;BME280;5961;42.640;23.380;2022-11-18T07:28:20;92976.88;;;10.00;100.00
11808;BME280;5961;42.640;23.380;2022-11-18T07:30:46;92980.34;;;10.04;100.00
11808;BME280;5961;42.640;23.380;2022-11-18T07:33:13;92989.94;;;10.09;100.00
11808;BME280;5961;42.640;23.380;2022-11-18T07:35:40;92991.59;;;10.17;100.00
11808;BME280;5961;42.640;23.380;2022-11-18T07:38:06;92977.28;;;10.21;100.00
11808;BME280;5961;42.640;23.380;2022-11-18T07:40:34;92972.13;;;10.32;100.00
11808;BME280;5961;42.640;23.380;2022-11-18T07:43:01;92981.72;;;10.40;100.00
11808;BME280;5961;42.640;23.380;2022-11-18T07:45:28;92975.06;;;10.50;100.00
11808;BME280;5961;42.640;23.380;2022-11-18T07:47:54;92987.75;;;10.60;100.00
11808;BME280;5961;42.640;23.380;2022-11-18T07:50:21;92974.53;;;10.67;100.00
11808;BME280;5961;42.640;23.380;2022-11-18T07:52:48;92970.06;;;10.71;100.00
11808;BME280;5961;42.640;23.380;2022-11-18T07:55:14;92965.13;;;10.73;100.00
11808;BME280;5961;42.640;23.380;2022-11-18T07:57:42;92991.81;;;10.80;100.00
11808;BME280;5961;42.640;23.380;2022-11-18T08:00:10;93007.75;;;10.80;100.00
11808;BME280;5961;42.640;23.380;2022-11-18T08:02:37;92995.72;;;10.86;100.00
11808;BME280;5961;42.640;23.380;2022-11-18T08:05:04;92968.31;;;10.82;100.00
11808;BME280;5961;42.640;23.380;2022-11-18T08:07:31;92995.00;;;10.89;100.00
11808;BME280;5961;42.640;23.380;2022-11-18T08:09:58;93018.97;;;10.92;100.00
11808;BME280;5961;42.640;23.380;2022-11-18T08:12:24;93031.88;;;10.94;100.00
11808;BME280;5961;42.640;23.380;2022-11-18T08:14:52;93044.88;;;10.99;100.00
11808;BME280;5961;42.640;23.380;2022-11-18T08:17:19;93026.94;;;10.92;100.00
11808;BME280;5961;42.640;23.380;2022-11-18T08:19:45;93027.28;;;10.91;100.00
11808;BME280;5961;42.640;23.380;2022-11-18T08:22:12;93035.97;;;10.88;100.00
11808;BME280;5961;42.640;23.380;2022-11-18T08:24:41;92999.53;;;10.88;100.00
11808;BME280;5961;42.640;23.380;2022-11-18T08:27:08;93017.56;;;10.76;100.00
11808;BME280;5961;42.640;23.380;2022-11-18T08:29:34;93009.09;;;10.67;100.00
11808;BME280;5961;42.640;23.380;2022-11-18T08:32:03;92984.78;;;10.65;100.00
11808;BME280;5961;42.640;23.380;2022-11-18T08:34:30;92980.41;;;10.79;100.00
11808;BME280;5961;42.640;23.380;2022-11-18T08:36:57;92995.72;;;10.86;100.00
11808;BME280;5961;42.640;23.380;2022-11-18T08:39:24;92986.28;;;10.92;100.00
11808;BME280;5961;42.640;23.380;2022-11-18T08:41:50;92976.13;;;10.97;100.00
11808;BME280;5961;42.640;23.380;2022-11-18T08:44:17;92965.63;;;11.08;100.00
11808;BME280;5961;42.640;23.380;2022-11-18T08:46:44;92975.69;;;11.22;100.00
11808;BME280;5961;42.640;23.380;2022-11-18T08:49:12;92973.13;;;11.29;100.00
11808;BME280;5961;42.640;23.380;2022-11-18T08:51:39;92946.97;;;11.34;100.00
11808;BME280;5961;42.640;23.380;2022-11-18T08:54:09;92926.97;;;11.14;100.00
11808;BME280;5961;42.640;23.380;2022-11-18T08:56:36;92951.06;;;11.28;100.00
11808;BME280;5961;42.640;23.380;2022-11-18T08:59:03;92917.31;;;11.32;100.00
11808;BME280;5961;42.640;23.380;2022-11-18T09:01:30;92915.03;;;11.34;100.00
11808;BME280;5961;42.640;23.380;2022-11-18T09:03:57;92933.31;;;11.36;100.00
11808;BME280;5961;42.640;23.380;2022-11-18T09:06:25;92911.31;;;11.39;100.00
11808;BME280;5961;42.640;23.380;2022-11-18T09:08:52;92912.47;;;11.41;100.00
11808;BME280;5961;42.640;23.380;2022-11-18T09:11:21;92911.00;;;11.47;100.00
11808;BME280;5961;42.640;23.380;2022-11-18T09:13:51;92901.97;;;11.55;100.00
11808;BME280;5961;42.640;23.380;2022-11-18T09:16:18;92911.88;;;11.58;100.00
11808;BME280;5961;42.640;23.380;2022-11-18T09:18:47;92907.72;;;11.61;100.00
11808;BME280;5961;42.640;23.380;2022-11-18T09:21:14;92906.72;;;11.73;100.00
11808;BME280;5961;42.640;23.380;2022-11-18T09:23:42;92904.13;;;11.80;100.00
11808;BME280;5961;42.640;23.380;2022-11-18T09:26:10;92885.50;;;11.80;100.00
11808;BME280;5961;42.640;23.380;2022-11-18T09:28:37;92867.84;;;11.65;100.00
11808;BME280;5961;42.640;23.380;2022-11-18T09:31:05;92898.88;;;11.87;100.00
11808;BME280;5961;42.640;23.380;2022-11-18T09:33:32;92905.75;;;11.91;100.00
11808;BME280;5961;42.640;23.380;2022-11-18T09:35:59;92898.94;;;11.94;100.00
11808;BME280;5961;42.640;23.380;2022-11-18T09:38:27;92891.00;;;12.01;100.00
11808;BME280;5961;42.640;23.380;2022-11-18T09:41:03;92899.81;;;12.05;100.00
11808;BME280;5961;42.640;23.380;2022-11-18T09:43:40;92888.38;;;12.04;100.00
11808;BME280;5961;42.640;23.380;2022-11-18T09:46:19;92881.91;;;12.02;100.00
11808;BME280;5961;42.640;23.380;2022-11-18T09:48:48;92887.25;;;12.05;100.00
11808;BME280;5961;42.640;23.380;2022-11-18T09:51:37;92862.56;;;12.08;100.00
11808;BME280;5961;42.640;23.380;2022-11-18T09:54:08;92860.63;;;12.09;100.00
11808;BME280;5961;42.640;23.380;2022-11-18T09:56:37;92844.31;;;12.14;100.00
11808;BME280;5961;42.640;23.380;2022-11-18T09:59:05;92738.84;;;11.44;100.00
11808;BME280;5961;42.640;23.380;2022-11-18T10:01:31;92819.94;;;12.08;100.00
11808;BME280;5961;42.640;23.380;2022-11-18T10:04:00;92836.75;;;12.20;100.00
11808;BME280;5961;42.640;23.380;2022-11-18T10:06:28;92850.13;;;12.27;100.00
11808;BME280;5961;42.640;23.380;2022-11-18T10:12:01;92847.16;;;12.42;100.00
11808;BME280;5961;42.640;23.380;2022-11-18T10:14:41;92847.22;;;12.49;100.00
11808;BME280;5961;42.640;23.380;2022-11-18T10:17:22;92816.59;;;12.22;100.00
11808;BME280;5961;42.640;23.380;2022-11-18T10:19:56;92858.34;;;12.65;100.00
11808;BME280;5961;42.640;23.380;2022-11-18T10:22:31;92847.34;;;12.74;100.00
11808;BME280;5961;42.640;23.380;2022-11-18T10:24:59;92733.25;;;12.15;100.00
11808;BME280;5961;42.640;23.380;2022-11-18T10:27:33;92841.31;;;12.84;100.00
11808;BME280;5961;42.640;23.380;2022-11-18T10:30:01;92818.47;;;12.87;100.00
11808;BME280;5961;42.640;23.380;2022-11-18T10:32:28;92787.97;;;12.88;100.00
11808;BME280;5961;42.640;23.380;2022-11-18T10:34:56;92794.47;;;12.94;100.00
11808;BME280;5961;42.640;23.380;2022-11-18T10:37:26;92803.63;;;13.00;100.00
11808;BME280;5961;42.640;23.380;2022-11-18T10:39:54;92812.84;;;13.09;99.75
11808;BME280;5961;42.640;23.380;2022-11-18T10:42:27;92789.63;;;13.24;94.74
11808;BME280;5961;42.640;23.380;2022-11-18T10:44:55;92794.63;;;13.36;97.10
11808;BME280;5961;42.640;23.380;2022-11-18T10:47:25;92796.16;;;13.48;93.07
11808;BME280;5961;42.640;23.380;2022-11-18T10:49:53;92805.34;;;13.68;87.31
11808;BME280;5961;42.640;23.380;2022-11-18T10:52:21;92795.81;;;13.99;83.36
11808;BME280;5961;42.640;23.380;2022-11-18T10:55:06;92791.19;;;14.24;84.02
11808;BME280;5961;42.640;23.380;2022-11-18T10:57:36;92782.41;;;14.38;89.28
11808;BME280;5961;42.640;23.380;2022-11-18T11:00:36;92786.19;;;14.51;93.17
11808;BME280;5961;42.640;23.380;2022-11-18T11:03:25;92778.56;;;14.53;94.12
11808;BME280;5961;42.640;23.380;2022-11-18T11:06:17;92773.94;;;14.57;92.08
11808;BME280;5961;42.640;23.380;2022-11-18T11:08:47;92774.34;;;14.59;93.15
11808;BME280;5961;42.640;23.380;2022-11-18T11:11:21;92769.38;;;14.54;93.30
11808;BME280;5961;42.640;23.380;2022-11-18T11:13:52;92778.53;;;14.63;90.99
11808;BME280;5961;42.640;23.380;2022-11-18T11:16:22;92783.88;;;14.63;89.89
11808;BME280;5961;42.640;23.380;2022-11-18T11:18:54;92789.97;;;14.60;88.83
11808;BME280;5961;42.640;23.380;2022-11-18T11:21:21;92783.13;;;14.59;89.52
11808;BME280;5961;42.640;23.380;2022-11-18T11:23:49;92770.53;;;14.56;89.91
11808;BME280;5961;42.640;23.380;2022-11-18T11:26:21;92744.19;;;14.51;91.33
11808;BME280;5961;42.640;23.380;2022-11-18T11:28:59;92761.00;;;14.52;90.31
11808;BME280;5961;42.640;23.380;2022-11-18T11:31:36;92743.41;;;14.51;90.45
11808;BME280;5961;42.640;23.380;2022-11-18T11:34:11;92715.22;;;14.32;92.32
11808;BME280;5961;42.640;23.380;2022-11-18T11:36:45;92739.66;;;14.41;92.14
11808;BME280;5961;42.640;23.380;2022-11-18T11:39:39;92744.25;;;14.37;92.33
11808;BME280;5961;42.640;23.380;2022-11-18T11:42:20;92747.28;;;14.32;92.50
11808;BME280;5961;42.640;23.380;2022-11-18T11:44:58;92749.59;;;14.23;92.05
11808;BME280;5961;42.640;23.380;2022-11-18T11:47:36;92746.94;;;14.16;92.31
11808;BME280;5961;42.640;23.380;2022-11-18T11:50:21;92738.16;;;14.12;92.94
11808;BME280;5961;42.640;23.380;2022-11-18T11:53:03;92751.53;;;14.05;92.65
11808;BME280;5961;42.640;23.380;2022-11-18T11:55:38;92739.72;;;13.99;92.20
11808;BME280;5961;42.640;23.380;2022-11-18T11:58:19;92729.03;;;13.92;92.54
11808;BME280;5961;42.640;23.380;2022-11-18T12:00:59;92743.16;;;13.82;93.24
11808;BME280;5961;42.640;23.380;2022-11-18T12:03:44;92731.72;;;13.70;92.83
11808;BME280;5961;42.640;23.380;2022-11-18T12:06:12;92724.47;;;13.67;93.89
11808;BME280;5961;42.640;23.380;2022-11-18T12:08:47;92739.38;;;13.68;94.74
11808;BME280;5961;42.640;23.380;2022-11-18T12:11:20;92749.66;;;13.66;93.23
11808;BME280;5961;42.640;23.380;2022-11-18T12:13:56;92725.25;;;13.57;93.11
11808;BME280;5961;42.640;23.380;2022-11-18T12:16:28;92735.53;;;13.66;93.17
11808;BME280;5961;42.640;23.380;2022-11-18T12:19:00;92727.16;;;13.67;94.29
11808;BME280;5961;42.640;23.380;2022-11-18T12:21:57;92732.88;;;13.69;94.43
11808;BME280;5961;42.640;23.380;2022-11-18T12:24:36;92737.44;;;13.69;94.93
11808;BME280;5961;42.640;23.380;2022-11-18T12:27:06;92753.47;;;13.72;95.42
11808;BME280;5961;42.640;23.380;2022-11-18T12:29:41;92716.06;;;13.72;95.94
11808;BME280;5961;42.640;23.380;2022-11-18T12:32:26;92704.25;;;13.70;96.45
11808;BME280;5961;42.640;23.380;2022-11-18T12:35:01;92699.69;;;13.70;96.61
11808;BME280;5961;42.640;23.380;2022-11-18T12:37:43;92706.94;;;13.73;96.37
11808;BME280;5961;42.640;23.380;2022-11-18T12:40:31;92704.63;;;13.72;95.43
11808;BME280;5961;42.640;23.380;2022-11-18T12:42:58;92715.31;;;13.72;96.39
11808;BME280;5961;42.640;23.380;2022-11-18T12:45:49;92706.56;;;13.71;96.36
11808;BME280;5961;42.640;23.380;2022-11-18T12:48:38;92706.94;;;13.77;96.49
11808;BME280;5961;42.640;23.380;2022-11-18T12:54:22;92700.84;;;13.77;96.40
11808;BME280;5961;42.640;23.380;2022-11-18T12:56:51;92694.72;;;13.72;95.73
11808;BME280;5961;42.640;23.380;2022-11-18T12:59:26;92667.66;;;13.74;93.30
11808;BME280;5961;42.640;23.380;2022-11-18T13:02:02;92663.06;;;13.82;90.73
11808;BME280;5961;42.640;23.380;2022-11-18T13:04:29;92670.28;;;13.85;91.74
11808;BME280;5961;42.640;23.380;2022-11-18T13:06:56;92671.41;;;13.91;92.52
11808;BME280;5961;42.640;23.380;2022-11-18T13:09:28;92663.03;;;13.92;93.69
11808;BME280;5961;42.640;23.380;2022-11-18T13:11:57;92672.56;;;13.97;94.41
11808;BME280;5961;42.640;23.380;2022-11-18T13:14:28;92657.69;;;13.96;93.53
11808;BME280;5961;42.640;23.380;2022-11-18T13:17:24;92663.75;;;14.03;92.28
11808;BME280;5961;42.640;23.380;2022-11-18T13:20:23;92645.84;;;14.04;92.59
11808;BME280;5961;42.640;23.380;2022-11-18T13:22:53;92626.78;;;14.02;93.09